Time;durP1;ratioP1;P1;durP2;ratioP2;P2;SDS_P1;SDS_P2;PMS_P1;PMS_P2;Temp;Humidity;BMP_temperature;BMP_pressure;BME280_temperature;BME280_humidity;BME280_pressure;Samples;Min_cycle;Max_cycle;Signal;HPM_P1;HPM_P2
2023/04/13 00:00:38;;;;;;;2.42;1.40;;;8.00;99.90;;;;;;5015193;28;20022;-74
2023/04/13 00:03:05;;;;;;;4.15;1.90;;;8.00;99.90;;;;;;5017127;28;20034;-73
2023/04/13 00:05:33;;;;;;;4.88;1.75;;;7.90;99.90;;;;;;5003168;28;20437;-73
2023/04/13 00:08:01;;;;;;;4.40;1.70;;;7.90;99.90;;;;;;5010709;28;20022;-75
2023/04/13 00:10:28;;;;;;;3.35;1.70;;;7.90;99.90;;;;;;4994815;28;20530;-74
2023/04/13 00:12:57;;;;;;;5.30;1.40;;;7.90;99.90;;;;;;5006049;28;20480;-74
2023/04/13 00:15:24;;;;;;;11.27;1.50;;;7.90;99.90;;;;;;5008441;28;20061;-74
2023/04/13 00:17:50;;;;;;;6.38;1.50;;;7.80;99.90;;;;;;5001876;28;20524;-74
2023/04/13 00:20:16;;;;;;;3.83;1.52;;;7.80;99.90;;;;;;5007188;28;20105;-74
2023/04/13 00:22:43;;;;;;;5.03;1.10;;;7.80;99.90;;;;;;5005045;28;20044;-74
2023/04/13 00:25:11;;;;;;;5.93;1.20;;;7.80;99.90;;;;;;5012142;28;20113;-73
2023/04/13 00:27:42;;;;;;;3.97;1.00;;;7.80;99.90;;;;;;5008135;28;20695;-74
2023/04/13 00:30:09;;;;;;;3.10;1.10;;;7.80;99.90;;;;;;5012260;28;20068;-73
2023/04/13 00:32:36;;;;;;;5.47;1.00;;;7.80;99.90;;;;;;5012075;28;20026;-74
2023/04/13 00:35:02;;;;;;;6.93;1.00;;;7.70;99.90;;;;;;5007808;28;20366;-74
2023/04/13 00:37:29;;;;;;;3.05;0.95;;;7.80;99.90;;;;;;5009893;28;20535;-73
2023/04/13 00:39:54;;;;;;;2.42;0.75;;;7.70;99.90;;;;;;5007418;28;20022;-74
2023/04/13 00:42:20;;;;;;;3.28;1.08;;;7.70;99.90;;;;;;5009319;28;20532;-74
2023/04/13 00:44:46;;;;;;;2.72;0.90;;;7.70;99.90;;;;;;5006282;28;20491;-74
2023/04/13 00:47:16;;;;;;;4.88;0.90;;;7.70;99.90;;;;;;5002351;28;20030;-74
2023/04/13 00:49:42;;;;;;;5.90;1.17;;;7.70;99.90;;;;;;5005924;28;20045;-73
2023/04/13 00:52:10;;;;;;;4.38;0.98;;;7.70;99.90;;;;;;5002029;28;20029;-72
2023/04/13 00:54:36;;;;;;;4.03;1.10;;;7.80;99.90;;;;;;5009730;28;20117;-74
2023/04/13 00:57:03;;;;;;;4.72;1.33;;;7.70;99.90;;;;;;5003325;28;20588;-74
2023/04/13 00:59:31;;;;;;;4.95;1.67;;;7.70;99.90;;;;;;5007498;28;20053;-73
2023/04/13 01:01:57;;;;;;;6.30;1.92;;;7.70;99.90;;;;;;5009011;28;20033;-74
2023/04/13 01:04:24;;;;;;;6.13;1.70;;;7.70;99.90;;;;;;5003489;28;20477;-73
2023/04/13 01:07:16;;;;;;;5.75;1.85;;;7.70;99.90;;;;;;5022990;28;20069;-73
2023/04/13 01:09:58;;;;;;;9.40;1.80;;;7.70;99.90;;;;;;5015163;28;20057;-73
2023/04/13 01:12:44;;;;;;;7.88;1.40;;;7.70;99.90;;;;;;5029653;28;20100;-74
2023/04/13 01:15:13;;;;;;;6.20;1.30;;;7.70;99.90;;;;;;5020359;28;20412;-74
2023/04/13 01:17:56;;;;;;;6.28;1.60;;;7.70;99.90;;;;;;5013483;28;20022;-74
2023/04/13 01:20:25;;;;;;;5.32;1.08;;;7.70;99.90;;;;;;5015104;28;20036;-74
2023/04/13 01:22:56;;;;;;;6.22;1.58;;;7.70;99.90;;;;;;5008565;28;20518;-74
2023/04/13 01:25:41;;;;;;;7.75;1.30;;;7.70;99.90;;;;;;5005258;28;20374;-74
2023/04/13 01:28:10;;;;;;;5.47;1.17;;;7.70;99.90;;;;;;5011984;28;20310;-73
2023/04/13 01:30:38;;;;;;;4.85;1.23;;;7.70;99.90;;;;;;5014109;28;20227;-73
2023/04/13 01:33:05;;;;;;;9.55;1.52;;;7.70;99.90;;;;;;5008615;28;20165;-73
2023/04/13 01:35:31;;;;;;;10.25;1.20;;;7.70;99.90;;;;;;5008433;28;20026;-73
2023/04/13 01:37:57;;;;;;;10.98;1.27;;;7.70;99.90;;;;;;5016852;28;20381;-74
2023/04/13 01:40:26;;;;;;;6.90;1.50;;;7.70;99.90;;;;;;5022134;28;20033;-73
2023/04/13 01:42:51;;;;;;;7.00;1.10;;;7.70;99.90;;;;;;5004999;28;20061;-74
2023/04/13 01:45:18;;;;;;;11.70;1.40;;;7.60;99.90;;;;;;5012028;28;20089;-74
2023/04/13 01:48:13;;;;;;;9.02;1.23;;;7.70;99.90;;;;;;5010112;28;20484;-73
2023/04/13 01:50:40;;;;;;;7.05;1.30;;;7.60;99.90;;;;;;5012692;28;20025;-74
2023/04/13 01:53:11;;;;;;;18.27;2.30;;;7.60;99.90;;;;;;5014346;28;20076;-74
2023/04/13 01:55:40;;;;;;;6.40;1.48;;;7.60;99.90;;;;;;5016258;28;20045;-74
2023/04/13 01:58:09;;;;;;;5.05;1.05;;;7.50;99.90;;;;;;5004814;28;20044;-74
2023/04/13 02:00:36;;;;;;;13.65;1.95;;;7.60;99.90;;;;;;5012796;28;20025;-73
2023/04/13 02:03:06;;;;;;;8.38;1.40;;;7.50;99.90;;;;;;5013154;28;20480;-74
2023/04/13 02:05:35;;;;;;;6.25;1.52;;;7.50;99.90;;;;;;5008328;28;20084;-74
2023/04/13 02:08:05;;;;;;;11.00;1.25;;;7.50;99.90;;;;;;5014462;28;20081;-74
2023/04/13 02:10:33;;;;;;;8.50;1.40;;;7.40;99.90;;;;;;5006278;28;20058;-73
2023/04/13 02:12:58;;;;;;;10.05;1.50;;;7.40;99.90;;;;;;5013034;28;20499;-74
2023/04/13 02:15:25;;;;;;;12.45;1.80;;;7.40;99.90;;;;;;5012592;28;20048;-74
2023/04/13 02:17:51;;;;;;;4.57;1.17;;;7.40;99.90;;;;;;5010107;28;20018;-74
2023/04/13 02:20:17;;;;;;;7.93;1.25;;;7.40;99.90;;;;;;5013239;28;20706;-74
2023/04/13 02:22:44;;;;;;;10.90;1.60;;;7.40;99.90;;;;;;5016099;28;20034;-74
2023/04/13 02:25:11;;;;;;;5.45;1.50;;;7.40;99.90;;;;;;5016331;28;20034;-74
2023/04/13 02:27:38;;;;;;;7.70;1.40;;;7.40;99.90;;;;;;5013560;28;20585;-74
2023/04/13 02:30:05;;;;;;;6.03;1.58;;;7.50;99.90;;;;;;5005383;28;20029;-74
2023/04/13 02:32:32;;;;;;;13.30;1.67;;;7.50;99.90;;;;;;5013164;28;20447;-74
2023/04/13 02:35:00;;;;;;;7.43;1.70;;;7.60;99.90;;;;;;5012862;28;20424;-74
2023/04/13 02:40:57;;;;;;;12.75;1.58;;;7.60;99.90;;;;;;5017818;22;20065;-75
2023/04/13 02:43:25;;;;;;;11.27;1.65;;;7.70;99.90;;;;;;4994272;28;20034;-72
2023/04/13 02:45:51;;;;;;;11.32;1.85;;;7.70;99.90;;;;;;4993968;28;20034;-73
2023/04/13 02:48:18;;;;;;;12.55;1.98;;;7.70;99.90;;;;;;4994153;28;20105;-73
2023/04/13 02:50:44;;;;;;;9.75;1.70;;;7.80;99.90;;;;;;4993784;28;20041;-73
2023/04/13 02:53:09;;;;;;;6.97;1.65;;;7.90;99.90;;;;;;4983618;28;20101;-72
2023/04/13 02:55:35;;;;;;;10.77;1.50;;;7.90;99.90;;;;;;4995578;28;20022;-72
2023/04/13 02:58:03;;;;;;;8.60;1.70;;;8.00;99.90;;;;;;4984447;28;20031;-73
2023/04/13 03:00:29;;;;;;;10.43;1.85;;;8.00;99.90;;;;;;4988815;28;20026;-72
2023/04/13 03:02:55;;;;;;;6.75;1.70;;;8.00;99.90;;;;;;4974762;28;20496;-73
2023/04/13 03:05:21;;;;;;;7.40;1.77;;;8.10;99.90;;;;;;4974539;28;20023;-72
2023/04/13 03:07:47;;;;;;;9.93;2.08;;;8.10;99.90;;;;;;4979878;28;20037;-73
2023/04/13 03:10:13;;;;;;;9.98;2.30;;;8.10;99.90;;;;;;4974734;28;20015;-73
2023/04/13 03:12:39;;;;;;;10.63;1.80;;;8.10;99.90;;;;;;4986766;28;20378;-74
2023/04/13 03:15:06;;;;;;;8.80;2.10;;;8.10;99.90;;;;;;4983770;28;20106;-74
2023/04/13 03:17:32;;;;;;;8.38;1.70;;;8.10;99.90;;;;;;4985653;28;20019;-74
2023/04/13 03:19:58;;;;;;;9.93;2.10;;;8.10;99.90;;;;;;4980882;28;20165;-74
2023/04/13 03:22:24;;;;;;;8.98;2.03;;;8.10;99.90;;;;;;4978734;28;20382;-73
2023/04/13 03:24:51;;;;;;;10.75;2.17;;;8.10;99.90;;;;;;4982375;28;20592;-73
2023/04/13 03:27:20;;;;;;;11.57;2.42;;;8.10;99.90;;;;;;4989151;28;20034;-74
2023/04/13 03:29:46;;;;;;;8.80;2.15;;;8.10;99.90;;;;;;5002476;28;20022;-73
2023/04/13 03:32:11;;;;;;;10.15;2.47;;;8.10;99.90;;;;;;4979341;28;20034;-73
2023/04/13 03:34:42;;;;;;;8.63;2.10;;;8.10;99.90;;;;;;4979979;28;20661;-73
2023/04/13 03:37:09;;;;;;;11.75;2.20;;;8.10;99.90;;;;;;4985391;28;20050;-73
2023/04/13 03:39:35;;;;;;;7.70;1.85;;;8.10;99.90;;;;;;4977207;28;20031;-73
2023/04/13 03:42:02;;;;;;;11.23;2.17;;;8.10;99.90;;;;;;4973287;28;20055;-74
2023/04/13 03:44:28;;;;;;;10.23;1.60;;;8.10;99.90;;;;;;4990699;28;20778;-73
2023/04/13 03:46:54;;;;;;;11.98;1.92;;;8.10;99.90;;;;;;4980681;28;20061;-73
2023/04/13 03:49:20;;;;;;;8.85;1.70;;;8.10;99.90;;;;;;4990282;28;20073;-73
2023/04/13 03:51:45;;;;;;;8.90;1.80;;;8.10;99.90;;;;;;4985550;28;20038;-74
2023/04/13 03:54:11;;;;;;;8.48;1.80;;;8.10;99.90;;;;;;4986701;28;20021;-74
2023/04/13 03:56:36;;;;;;;9.07;1.50;;;8.10;99.90;;;;;;4976312;28;20082;-72
2023/04/13 03:59:02;;;;;;;10.73;1.58;;;8.10;99.90;;;;;;4991263;28;20019;-74
2023/04/13 04:01:28;;;;;;;14.82;2.17;;;8.10;99.90;;;;;;4984430;28;20027;-73
2023/04/13 04:03:55;;;;;;;8.68;1.42;;;8.10;99.90;;;;;;4973544;28;20528;-73
2023/04/13 04:06:26;;;;;;;11.60;1.67;;;8.10;99.90;;;;;;4973254;28;20019;-73
2023/04/13 04:08:52;;;;;;;12.65;1.83;;;8.10;99.90;;;;;;4974286;28;20035;-73
2023/04/13 04:11:17;;;;;;;9.68;1.70;;;8.10;99.90;;;;;;4974022;28;20088;-73
2023/04/13 04:13:43;;;;;;;9.48;1.20;;;8.10;99.90;;;;;;4974215;28;20527;-73
2023/04/13 04:16:10;;;;;;;5.53;1.35;;;8.10;99.90;;;;;;4972486;28;20090;-74
2023/04/13 04:18:36;;;;;;;5.13;1.63;;;8.10;99.90;;;;;;4985699;28;20011;-74
2023/04/13 04:21:02;;;;;;;8.73;1.65;;;8.10;99.90;;;;;;4973060;28;20049;-74
2023/04/13 04:23:28;;;;;;;11.02;1.92;;;8.10;99.90;;;;;;4973594;28;20035;-74
2023/04/13 04:25:58;;;;;;;8.10;1.88;;;8.10;99.90;;;;;;4977193;28;20104;-75
2023/04/13 04:28:24;;;;;;;9.65;1.85;;;8.10;99.90;;;;;;4989215;28;20397;-74
2023/04/13 04:30:52;;;;;;;11.32;2.00;;;8.10;99.90;;;;;;4991563;28;20458;-74
2023/04/13 04:33:21;;;;;;;8.48;1.60;;;8.00;99.90;;;;;;4986589;28;20041;-74
2023/04/13 04:35:49;;;;;;;10.75;1.88;;;8.00;99.90;;;;;;4988128;28;20183;-74
2023/04/13 04:38:16;;;;;;;14.30;2.10;;;8.00;99.90;;;;;;4973280;28;20120;-74
2023/04/13 04:40:44;;;;;;;7.85;1.40;;;8.00;99.90;;;;;;4973179;28;20109;-74
2023/04/13 04:43:13;;;;;;;6.13;1.20;;;8.00;99.90;;;;;;4976804;28;20039;-74
2023/04/13 04:45:44;;;;;;;7.55;1.27;;;7.90;99.90;;;;;;4968466;28;20034;-73
2023/04/13 04:48:10;;;;;;;6.80;1.17;;;7.90;99.90;;;;;;4989748;28;20050;-74
2023/04/13 04:50:36;;;;;;;7.90;1.15;;;7.90;99.90;;;;;;4984562;28;20019;-74
2023/04/13 04:53:03;;;;;;;8.35;1.52;;;7.90;99.90;;;;;;4982104;28;20033;-74
2023/04/13 04:55:29;;;;;;;7.22;1.42;;;7.90;99.90;;;;;;4990160;28;20503;-74
2023/04/13 04:57:55;;;;;;;8.25;1.50;;;7.90;99.90;;;;;;4985378;28;20034;-74
2023/04/13 05:07:57;;;;;;;4.45;1.30;;;7.90;99.90;;;;;;5214804;22;20136;-75
2023/04/13 05:10:25;;;;;;;9.77;1.45;;;8.00;99.90;;;;;;5000407;28;20045;-75
2023/04/13 05:12:55;;;;;;;11.20;1.70;;;7.90;99.90;;;;;;5007081;28;20052;-76
2023/04/13 05:15:21;;;;;;;6.95;1.40;;;8.00;99.90;;;;;;5011866;28;20453;-75
2023/04/13 05:17:49;;;;;;;7.43;1.42;;;7.90;99.90;;;;;;5012200;28;20049;-75
2023/04/13 05:20:14;;;;;;;8.93;1.13;;;7.90;99.90;;;;;;5011312;28;20474;-74
2023/04/13 05:22:41;;;;;;;5.75;1.25;;;7.90;99.90;;;;;;5010330;28;20030;-74
2023/04/13 05:25:08;;;;;;;5.32;1.55;;;7.80;99.90;;;;;;5008879;28;20041;-75
2023/04/13 05:27:34;;;;;;;11.45;1.65;;;7.80;99.90;;;;;;5004233;28;20034;-71
2023/04/13 05:29:59;;;;;;;7.88;1.58;;;7.80;99.90;;;;;;5008934;28;20030;-71
2023/04/13 05:32:25;;;;;;;9.15;1.58;;;7.80;99.90;;;;;;4983690;28;20080;-71
2023/04/13 05:34:50;;;;;;;9.18;1.70;;;7.90;99.90;;;;;;5000495;28;20041;-71
2023/04/13 05:37:16;;;;;;;10.38;1.80;;;7.90;99.90;;;;;;5007605;28;20097;-71
2023/04/13 05:39:42;;;;;;;11.02;1.98;;;7.90;99.90;;;;;;5012550;28;20026;-70
2023/04/13 05:42:08;;;;;;;14.23;2.35;;;7.90;99.90;;;;;;5012160;28;20037;-71
2023/04/13 05:44:34;;;;;;;8.25;1.55;;;8.00;99.90;;;;;;5012373;28;20472;-71
2023/04/13 05:47:01;;;;;;;15.27;2.35;;;8.00;99.90;;;;;;5004413;28;20088;-71
2023/04/13 05:49:27;;;;;;;19.13;2.38;;;8.10;99.90;;;;;;5009718;28;20013;-71
2023/04/13 05:51:55;;;;;;;16.95;2.67;;;8.10;99.90;;;;;;5003043;28;20332;-70
2023/04/13 05:54:21;;;;;;;17.10;2.85;;;8.20;99.90;;;;;;5010244;28;20494;-70
2023/04/13 05:56:47;;;;;;;16.33;2.38;;;8.20;99.90;;;;;;5010769;28;20018;-71
2023/04/13 05:59:13;;;;;;;11.23;2.00;;;8.30;99.90;;;;;;5000430;28;20080;-71
2023/04/13 06:01:38;;;;;;;15.40;2.38;;;8.40;99.90;;;;;;4999433;28;20033;-73
2023/04/13 06:04:04;;;;;;;15.75;2.70;;;8.40;99.90;;;;;;5012250;28;20380;-72
2023/04/13 06:06:30;;;;;;;19.80;2.63;;;8.40;99.90;;;;;;5005599;28;20032;-72
2023/04/13 06:08:56;;;;;;;12.55;2.55;;;8.40;99.90;;;;;;5013396;28;20471;-72
2023/04/13 06:11:23;;;;;;;14.45;2.80;;;8.50;99.90;;;;;;5013423;28;20014;-72
2023/04/13 06:13:49;;;;;;;16.45;2.63;;;8.50;99.90;;;;;;5013903;28;20050;-72
2023/04/13 06:16:14;;;;;;;21.15;2.92;;;8.50;99.90;;;;;;5012969;28;20061;-72
2023/04/13 06:18:40;;;;;;;15.90;2.10;;;8.60;99.90;;;;;;5013136;28;20026;-72
2023/04/13 06:21:06;;;;;;;17.15;2.30;;;8.60;99.90;;;;;;5011648;28;20022;-72
2023/04/13 06:23:33;;;;;;;20.20;2.38;;;8.50;99.90;;;;;;5012156;28;20054;-71
2023/04/13 06:25:58;;;;;;;15.40;2.58;;;8.50;99.90;;;;;;5006426;28;20392;-72
2023/04/13 06:28:27;;;;;;;16.90;2.92;;;8.50;99.90;;;;;;5011761;28;20026;-71
2023/04/13 06:30:54;;;;;;;15.48;2.33;;;8.40;99.90;;;;;;4995745;28;20034;-71
2023/04/13 06:33:21;;;;;;;14.75;2.92;;;8.50;99.90;;;;;;5016213;28;20026;-71
2023/04/13 06:35:48;;;;;;;19.80;3.63;;;8.50;99.90;;;;;;5005998;28;20045;-71
2023/04/13 06:38:13;;;;;;;20.20;2.83;;;8.60;99.90;;;;;;5015359;28;20109;-71
2023/04/13 06:40:39;;;;;;;19.35;2.50;;;8.60;99.90;;;;;;5019000;28;20041;-71
2023/04/13 06:43:04;;;;;;;17.80;3.10;;;8.70;99.90;;;;;;5014532;28;20033;-72
2023/04/13 06:45:32;;;;;;;18.63;3.70;;;8.70;99.90;;;;;;5011807;28;20014;-72
2023/04/13 06:47:59;;;;;;;14.13;2.78;;;8.70;99.90;;;;;;5011285;28;20022;-71
2023/04/13 06:50:25;;;;;;;19.23;2.58;;;8.70;99.90;;;;;;5003096;28;20484;-72
2023/04/13 06:52:50;;;;;;;18.88;2.83;;;8.70;99.90;;;;;;5010062;28;20037;-72
2023/04/13 06:55:16;;;;;;;17.42;2.90;;;8.70;99.90;;;;;;4998428;28;20567;-72
2023/04/13 06:57:42;;;;;;;20.00;3.13;;;8.70;99.90;;;;;;5018004;28;20022;-79
2023/04/13 07:00:09;;;;;;;18.63;3.30;;;8.80;99.90;;;;;;4999348;28;20124;-73
2023/04/13 07:02:35;;;;;;;19.17;3.13;;;8.80;99.90;;;;;;5012514;28;20030;-72
2023/04/13 07:05:01;;;;;;;18.42;3.40;;;8.90;99.90;;;;;;5011809;28;20026;-73
2023/04/13 07:07:27;;;;;;;19.27;3.38;;;8.90;99.90;;;;;;5005932;28;20117;-73
2023/04/13 07:09:52;;;;;;;21.85;2.95;;;9.00;99.90;;;;;;5005020;28;20052;-72
2023/04/13 07:12:18;;;;;;;18.92;3.22;;;9.10;99.90;;;;;;5005794;28;20080;-73
2023/04/13 07:14:47;;;;;;;20.48;3.33;;;9.10;99.90;;;;;;5007239;28;20061;-74
2023/04/13 07:17:13;;;;;;;18.50;2.80;;;9.10;99.90;;;;;;5008175;28;20302;-73
2023/04/13 07:19:43;;;;;;;16.42;2.45;;;9.20;99.90;;;;;;5003225;28;20026;-72
2023/04/13 07:22:08;;;;;;;17.05;2.90;;;9.10;99.90;;;;;;5002716;28;20045;-72
2023/04/13 07:24:34;;;;;;;16.55;2.83;;;9.20;99.90;;;;;;5013177;28;20018;-73
2023/04/13 07:27:00;;;;;;;14.77;2.65;;;9.20;99.90;;;;;;5012914;28;20053;-72
2023/04/13 07:29:26;;;;;;;19.52;3.67;;;9.20;99.90;;;;;;5008977;28;20064;-73
2023/04/13 07:31:57;;;;;;;18.65;3.13;;;9.20;99.90;;;;;;5011428;28;20022;-72
2023/04/13 07:34:22;;;;;;;16.27;2.90;;;9.20;99.90;;;;;;5011475;28;20044;-73
2023/04/13 07:36:48;;;;;;;20.15;2.47;;;9.20;99.90;;;;;;5013714;28;20085;-73
2023/04/13 07:39:13;;;;;;;18.48;2.83;;;9.20;99.90;;;;;;5006146;28;20115;-74
2023/04/13 07:41:39;;;;;;;16.05;2.90;;;9.30;99.90;;;;;;5009743;28;20018;-75
2023/04/13 07:44:05;;;;;;;15.38;2.38;;;9.30;99.90;;;;;;5012929;28;20152;-75
2023/04/13 07:46:32;;;;;;;22.50;3.20;;;9.30;99.90;;;;;;5004937;28;20022;-74
2023/04/13 07:48:59;;;;;;;24.90;3.10;;;9.30;99.90;;;;;;5012675;28;20026;-73
2023/04/13 07:51:25;;;;;;;14.52;2.55;;;9.40;99.90;;;;;;5011638;28;20354;-73
2023/04/13 07:53:51;;;;;;;19.80;2.83;;;9.40;99.90;;;;;;5006839;28;20448;-73
2023/04/13 07:56:17;;;;;;;16.75;2.80;;;9.40;99.90;;;;;;5010021;28;20065;-73
2023/04/13 07:58:43;;;;;;;13.85;2.50;;;9.40;99.90;;;;;;5005299;28;20026;-73
2023/04/13 08:01:09;;;;;;;15.00;2.40;;;9.40;99.90;;;;;;5003723;28;20512;-73
2023/04/13 08:03:35;;;;;;;12.20;2.20;;;9.40;99.90;;;;;;5008273;28;20388;-73
2023/04/13 08:06:04;;;;;;;13.02;2.40;;;9.40;99.90;;;;;;5009354;28;20024;-73
2023/04/13 08:08:32;;;;;;;16.20;2.78;;;9.40;99.90;;;;;;5010266;28;20053;-74
2023/04/13 08:10:58;;;;;;;18.00;2.47;;;9.40;99.90;;;;;;5010518;28;20145;-73
2023/04/13 08:13:23;;;;;;;14.88;2.72;;;9.50;99.90;;;;;;5007161;28;20141;-73
2023/04/13 08:15:49;;;;;;;19.65;2.47;;;9.50;99.90;;;;;;5008315;28;20042;-73
2023/04/13 08:18:15;;;;;;;14.45;2.40;;;9.50;99.90;;;;;;5002021;28;20134;-72
2023/04/13 08:20:41;;;;;;;14.60;2.88;;;9.60;99.90;;;;;;5011381;28;20029;-73
2023/04/13 08:23:06;;;;;;;18.80;2.58;;;9.60;99.90;;;;;;5000890;28;20034;-72
2023/04/13 08:25:37;;;;;;;17.67;3.00;;;9.60;99.90;;;;;;5010776;28;20452;-73
2023/04/13 08:28:02;;;;;;;16.65;2.88;;;9.70;99.90;;;;;;4999249;28;20065;-73
2023/04/13 08:30:31;;;;;;;15.00;2.53;;;9.70;99.90;;;;;;5010873;28;20026;-73
2023/04/13 08:32:57;;;;;;;23.13;2.60;;;9.80;99.90;;;;;;5011298;28;20416;-73
2023/04/13 08:35:23;;;;;;;15.38;2.22;;;9.80;99.90;;;;;;5011226;28;20037;-73
2023/04/13 08:37:48;;;;;;;22.92;3.30;;;9.90;99.90;;;;;;5012051;28;20021;-73
2023/04/13 08:40:17;;;;;;;17.73;2.42;;;9.90;99.90;;;;;;5008758;28;20037;-74
2023/04/13 08:42:43;;;;;;;18.92;2.75;;;10.00;99.90;;;;;;5007273;28;20447;-74
2023/04/13 08:45:09;;;;;;;17.75;2.78;;;10.10;99.90;;;;;;5008884;28;20026;-73
2023/04/13 08:47:35;;;;;;;15.52;2.50;;;10.20;99.90;;;;;;5012113;28;20493;-73
2023/04/13 08:50:01;;;;;;;15.43;2.78;;;10.30;99.90;;;;;;5010342;28;20109;-74
2023/04/13 08:52:28;;;;;;;11.88;2.58;;;10.30;99.90;;;;;;5004311;28;20031;-74
2023/04/13 08:54:56;;;;;;;13.32;2.50;;;10.30;99.90;;;;;;5006657;28;20489;-73
2023/04/13 08:57:22;;;;;;;15.07;2.33;;;10.40;99.90;;;;;;5011583;28;20057;-75
2023/04/13 08:59:51;;;;;;;17.17;2.33;;;10.40;99.90;;;;;;5007627;28;20498;-74
2023/04/13 09:02:23;;;;;;;16.02;2.47;;;10.40;99.90;;;;;;5001823;28;20423;-74
2023/04/13 09:04:51;;;;;;;18.27;2.40;;;10.50;99.90;;;;;;5010977;28;20040;-74
2023/04/13 09:07:27;;;;;;;18.25;2.63;;;10.50;99.90;;;;;;5010513;28;20081;-74
2023/04/13 09:09:57;;;;;;;16.30;2.42;;;10.50;99.90;;;;;;5009513;28;20053;-74
2023/04/13 09:12:23;;;;;;;15.73;2.72;;;10.40;99.90;;;;;;5009252;28;20412;-74
2023/04/13 09:14:49;;;;;;;16.63;2.38;;;10.40;99.90;;;;;;4998780;28;20084;-75
2023/04/13 09:17:31;;;;;;;11.77;2.33;;;10.40;99.90;;;;;;5011217;28;20488;-74
2023/04/13 09:20:10;;;;;;;16.08;2.70;;;10.40;99.90;;;;;;5005602;28;20025;-74
2023/04/13 09:22:36;;;;;;;15.98;2.60;;;10.40;99.90;;;;;;4995153;28;20089;-74
2023/04/13 09:25:04;;;;;;;19.92;3.10;;;10.40;99.90;;;;;;5003371;28;20416;-73
2023/04/13 09:27:29;;;;;;;17.33;2.20;;;10.50;99.90;;;;;;5007131;28;20034;-75
2023/04/13 09:29:56;;;;;;;20.77;3.47;;;10.50;99.90;;;;;;5011296;28;20105;-74
2023/04/13 09:32:24;;;;;;;21.10;2.85;;;10.50;99.90;;;;;;5011348;28;20018;-74
2023/04/13 09:35:04;;;;;;;14.10;2.53;;;10.50;99.90;;;;;;5011311;28;20029;-73
2023/04/13 09:37:35;;;;;;;13.82;2.80;;;10.50;99.90;;;;;;4998621;28;20026;-75
2023/04/13 09:40:11;;;;;;;16.27;2.65;;;10.40;99.90;;;;;;5010869;28;20059;-74
2023/04/13 09:42:41;;;;;;;17.35;2.75;;;10.40;99.90;;;;;;5007091;28;20038;-74
2023/04/13 09:45:08;;;;;;;15.73;2.58;;;10.40;99.90;;;;;;5014889;28;20054;-74
2023/04/13 09:47:39;;;;;;;14.23;2.63;;;10.50;99.90;;;;;;5013601;28;20119;-74
2023/04/13 09:50:20;;;;;;;13.95;2.47;;;10.70;99.90;;;;;;5014908;28;20064;-74
2023/04/13 09:52:46;;;;;;;11.45;2.15;;;10.90;99.90;;;;;;5012467;28;20057;-74
2023/04/13 09:55:18;;;;;;;18.88;2.47;;;10.90;99.90;;;;;;5007829;28;20050;-74
2023/04/13 09:57:43;;;;;;;15.77;2.38;;;10.90;99.90;;;;;;5012264;28;20030;-74
2023/04/13 10:00:19;;;;;;;16.05;2.55;;;10.80;99.90;;;;;;5008266;28;20072;-74
2023/04/13 10:02:48;;;;;;;17.90;2.13;;;10.90;99.90;;;;;;5013554;28;20038;-75
2023/04/13 10:05:14;;;;;;;18.85;2.65;;;10.90;99.90;;;;;;5011616;28;20011;-74
2023/04/13 10:07:43;;;;;;;11.88;2.50;;;11.00;99.90;;;;;;5006196;28;20041;-74
2023/04/13 10:10:09;;;;;;;16.10;2.80;;;11.00;99.90;;;;;;5013837;28;20657;-74
2023/04/13 10:12:51;;;;;;;16.35;2.88;;;11.00;99.90;;;;;;5014141;28;20517;-74
2023/04/13 10:15:53;;;;;;;20.83;2.60;;;11.10;99.90;;;;;;5002722;28;20026;-74
2023/04/13 10:18:56;;;;;;;17.55;2.58;;;11.10;99.90;;;;;;5010961;28;20104;-73
2023/04/13 10:21:25;;;;;;;14.07;2.58;;;11.00;99.90;;;;;;4996521;28;20034;-73
2023/04/13 10:23:51;;;;;;;15.10;2.30;;;10.90;99.90;;;;;;5010945;28;20030;-74
2023/04/13 10:26:17;;;;;;;15.05;2.40;;;10.90;99.90;;;;;;5009291;28;20053;-74
2023/04/13 10:28:44;;;;;;;16.75;3.03;;;10.90;99.90;;;;;;5012814;28;20084;-74
2023/04/13 10:31:09;;;;;;;19.33;2.42;;;10.80;99.90;;;;;;5013614;28;20092;-74
2023/04/13 10:33:47;;;;;;;19.65;2.92;;;10.80;99.90;;;;;;5014893;28;20476;-74
2023/04/13 10:36:12;;;;;;;15.00;2.97;;;10.80;99.90;;;;;;5005382;28;20068;-73
2023/04/13 10:38:45;;;;;;;11.18;2.03;;;10.80;99.90;;;;;;5011645;28;20022;-74
2023/04/13 10:41:24;;;;;;;17.83;2.65;;;10.80;99.90;;;;;;5014575;28;20482;-74
2023/04/13 10:44:05;;;;;;;9.65;2.13;;;10.80;99.90;;;;;;5011414;28;20030;-73
2023/04/13 10:46:35;;;;;;;15.32;2.50;;;10.80;99.90;;;;;;5010594;28;20492;-74
2023/04/13 10:49:02;;;;;;;16.60;2.83;;;10.80;99.90;;;;;;5013325;28;20084;-73
2023/04/13 10:51:41;;;;;;;17.27;2.60;;;11.00;99.90;;;;;;5009716;28;20033;-73
2023/04/13 10:54:08;;;;;;;14.20;2.45;;;11.00;99.90;;;;;;5007514;28;20448;-75
2023/04/13 10:56:34;;;;;;;13.48;2.10;;;11.00;99.90;;;;;;5012491;28;20017;-74
2023/04/13 10:59:00;;;;;;;11.40;2.28;;;11.00;99.90;;;;;;5005121;28;20112;-74
2023/04/13 11:01:26;;;;;;;13.32;2.60;;;10.90;99.90;;;;;;5012250;28;20037;-74
2023/04/13 11:03:53;;;;;;;13.38;2.50;;;10.90;99.90;;;;;;5007484;28;20117;-74
2023/04/13 11:06:18;;;;;;;16.60;2.67;;;10.90;99.90;;;;;;5002291;28;20484;-73
2023/04/13 11:08:45;;;;;;;13.38;2.35;;;11.00;99.90;;;;;;5012151;28;20042;-74
2023/04/13 11:11:11;;;;;;;20.45;2.17;;;11.10;99.90;;;;;;5012298;28;20043;-75
2023/04/13 11:13:46;;;;;;;14.38;2.80;;;11.10;99.90;;;;;;5012810;28;20516;-74
2023/04/13 11:16:12;;;;;;;17.90;2.47;;;11.20;99.90;;;;;;5004626;28;20036;-74
2023/04/13 11:18:38;;;;;;;18.40;3.20;;;11.20;99.90;;;;;;5006053;28;20448;-74
2023/04/13 11:21:04;;;;;;;16.20;2.75;;;11.30;99.90;;;;;;5012122;28;20028;-74
2023/04/13 11:23:33;;;;;;;14.80;2.58;;;11.30;99.90;;;;;;5012320;28;20040;-74
2023/04/13 11:26:00;;;;;;;15.35;2.42;;;11.30;99.90;;;;;;5011293;28;20040;-74
2023/04/13 11:28:56;;;;;;;17.67;2.97;;;11.30;99.90;;;;;;5012106;28;20456;-74
2023/04/13 11:31:33;;;;;;;22.92;2.85;;;11.40;99.90;;;;;;5012816;28;20396;-75
2023/04/13 11:33:58;;;;;;;18.48;2.60;;;11.30;99.90;;;;;;5011538;28;20030;-74
2023/04/13 11:36:25;;;;;;;13.98;2.70;;;11.30;99.90;;;;;;5010829;28;20511;-74
2023/04/13 11:38:53;;;;;;;17.33;2.60;;;11.20;99.90;;;;;;5012696;28;20025;-73
2023/04/13 11:41:18;;;;;;;13.30;2.70;;;11.20;99.90;;;;;;5011478;28;20477;-73
2023/04/13 11:43:44;;;;;;;15.50;2.50;;;11.30;99.90;;;;;;4999992;28;20061;-74
2023/04/13 11:46:12;;;;;;;16.80;2.40;;;11.60;99.90;;;;;;5011317;28;20026;-74
2023/04/13 11:48:38;;;;;;;18.05;2.22;;;11.70;99.90;;;;;;5012026;28;20571;-74
2023/04/13 11:51:04;;;;;;;12.25;2.35;;;11.80;99.90;;;;;;5012996;28;20022;-73
2023/04/13 11:53:31;;;;;;;14.27;2.40;;;11.90;99.90;;;;;;5012026;28;20030;-73
2023/04/13 11:55:56;;;;;;;15.98;2.63;;;12.10;99.90;;;;;;5010788;28;20022;-73
2023/04/13 11:58:23;;;;;;;10.15;2.00;;;12.20;99.90;;;;;;5000311;28;20026;-73
2023/04/13 12:00:48;;;;;;;11.73;2.10;;;12.30;99.90;;;;;;5011957;28;20037;-73
2023/04/13 12:03:16;;;;;;;13.60;2.00;;;12.30;99.90;;;;;;5011049;28;20455;-73
2023/04/13 12:05:43;;;;;;;10.98;2.20;;;12.40;99.90;;;;;;5011998;28;20129;-74
2023/04/13 12:08:18;;;;;;;13.60;2.42;;;12.30;99.90;;;;;;5010773;28;20018;-73
2023/04/13 12:10:44;;;;;;;11.07;1.90;;;12.30;99.90;;;;;;5008161;28;20037;-74
2023/04/13 12:13:12;;;;;;;13.77;1.85;;;12.20;99.90;;;;;;5007344;28;20495;-74
2023/04/13 12:15:39;;;;;;;15.18;2.53;;;12.20;99.90;;;;;;5006694;28;20104;-74
2023/04/13 12:18:05;;;;;;;11.82;2.28;;;12.10;99.90;;;;;;5000620;28;20030;-73
2023/04/13 12:20:36;;;;;;;10.93;1.95;;;12.10;99.90;;;;;;5010038;28;20018;-73
2023/04/13 12:23:02;;;;;;;13.52;2.47;;;12.20;99.90;;;;;;5010831;28;20041;-73
2023/04/13 12:25:28;;;;;;;13.82;2.78;;;12.10;99.90;;;;;;5011352;28;20014;-74
2023/04/13 12:27:54;;;;;;;16.10;2.40;;;12.00;99.90;;;;;;5000853;28;20038;-74
2023/04/13 12:30:21;;;;;;;15.32;2.53;;;12.00;99.90;;;;;;5010741;28;20026;-75
2023/04/13 12:32:52;;;;;;;11.45;2.20;;;11.90;99.90;;;;;;5011131;28;20392;-74
2023/04/13 12:35:18;;;;;;;12.48;2.42;;;11.90;99.90;;;;;;5010008;28;20033;-74
2023/04/13 12:37:45;;;;;;;16.08;2.50;;;11.90;99.90;;;;;;5011181;28;20080;-74
2023/04/13 12:40:14;;;;;;;13.95;2.38;;;12.00;99.90;;;;;;5011505;28;20049;-74
2023/04/13 12:42:41;;;;;;;14.52;2.13;;;11.90;99.90;;;;;;5009835;28;20041;-73
2023/04/13 12:45:07;;;;;;;15.98;2.30;;;11.90;99.90;;;;;;5003901;28;20033;-74
2023/04/13 12:47:33;;;;;;;11.32;2.25;;;11.90;99.90;;;;;;5007830;28;20049;-73
2023/04/13 12:49:58;;;;;;;13.27;2.28;;;12.00;99.90;;;;;;5007559;28;20026;-74
2023/04/13 12:52:27;;;;;;;12.70;2.08;;;12.00;99.90;;;;;;5011101;28;20053;-73
2023/04/13 12:54:54;;;;;;;9.27;2.00;;;12.00;99.90;;;;;;5004846;28;20031;-73
2023/04/13 12:57:20;;;;;;;18.63;2.63;;;12.00;99.90;;;;;;5007564;28;20022;-73
2023/04/13 12:59:45;;;;;;;15.63;2.50;;;12.00;99.90;;;;;;5010887;28;20091;-74